5CL2 weather

St Louise Regional Hospital Heliport
Gilroy, California, United States

Public forecast

Using degrees Fahrenheit for public forecast. Weather courtesy of forecast.io.

METAR (pilot weather report)

Closest report is San Martin Airport, 3.0 nm (5.6 km) NNW. Retrieved UTC (0 seconds ago):

TAF (pilot weather forecast)

Forecast is more than 12 hours old.

Closest forecast is Salinas Municipal Airport, 22.5 nm (41.6 km) S. Retrieved 2019/06/19 00:24 UTC (1 day ago):

TAF KSNS 192322Z 2000/2024 32015KT P6SM FEW012 TEMPO 2000/2003 BKN012 FM200300 32007KT P6SM OVC008 FM201200 VRB05KT P6SM OVC006 FM201700 VRB04KT P6SM OVC010 FM201900 30012KT P6SM FEW015